sensor_id;sensor_type;location;lat;lon;timestamp;temperature;humidity
14144;DHT22;7152;48.348;10.980;2022-11-06T00:01:50;4.90;99.90
14144;DHT22;7152;48.348;10.980;2022-11-06T00:04:15;5.00;99.90
14144;DHT22;7152;48.348;10.980;2022-11-06T00:06:41;5.00;99.90
14144;DHT22;7152;48.348;10.980;2022-11-06T00:09:15;5.00;99.90
14144;DHT22;7152;48.348;10.980;2022-11-06T00:11:41;5.00;99.90
14144;DHT22;7152;48.348;10.980;2022-11-06T00:14:07;4.90;99.90
14144;DHT22;7152;48.348;10.980;2022-11-06T00:16:33;4.80;99.90
14144;DHT22;7152;48.348;10.980;2022-11-06T00:19:01;4.70;99.90
14144;DHT22;7152;48.348;10.980;2022-11-06T00:21:28;4.70;99.90
14144;DHT22;7152;48.348;10.980;2022-11-06T00:23:55;4.70;99.90
14144;DHT22;7152;48.348;10.980;2022-11-06T00:26:24;4.60;99.90
14144;DHT22;7152;48.348;10.980;2022-11-06T00:28:51;4.60;99.90
14144;DHT22;7152;48.348;10.980;2022-11-06T00:31:23;4.60;99.90
14144;DHT22;7152;48.348;10.980;2022-11-06T00:33:50;4.60;99.90
14144;DHT22;7152;48.348;10.980;2022-11-06T00:36:19;4.60;99.90
14144;DHT22;7152;48.348;10.980;2022-11-06T00:38:45;4.60;99.90
14144;DHT22;7152;48.348;10.980;2022-11-06T00:41:14;4.60;99.90
14144;DHT22;7152;48.348;10.980;2022-11-06T00:43:41;4.50;99.90
14144;DHT22;7152;48.348;10.980;2022-11-06T00:46:11;4.40;99.90
14144;DHT22;7152;48.348;10.980;2022-11-06T00:48:38;4.40;99.90
14144;DHT22;7152;48.348;10.980;2022-11-06T00:51:11;4.40;99.90
14144;DHT22;7152;48.348;10.980;2022-11-06T00:53:37;4.30;99.90
14144;DHT22;7152;48.348;10.980;2022-11-06T00:56:14;4.30;99.90
14144;DHT22;7152;48.348;10.980;2022-11-06T00:58:40;4.20;99.90
14144;DHT22;7152;48.348;10.980;2022-11-06T01:01:11;4.20;99.90
14144;DHT22;7152;48.348;10.980;2022-11-06T01:03:38;4.10;99.90
14144;DHT22;7152;48.348;10.980;2022-11-06T01:06:10;4.10;99.90
14144;DHT22;7152;48.348;10.980;2022-11-06T01:08:36;4.00;99.90
14144;DHT22;7152;48.348;10.980;2022-11-06T01:13:42;4.00;99.90
14144;DHT22;7152;48.348;10.980;2022-11-06T01:16:12;4.00;99.90
14144;DHT22;7152;48.348;10.980;2022-11-06T01:18:39;3.90;99.90
14144;DHT22;7152;48.348;10.980;2022-11-06T01:21:10;3.90;99.90
14144;DHT22;7152;48.348;10.980;2022-11-06T01:23:36;3.90;99.90
14144;DHT22;7152;48.348;10.980;2022-11-06T01:26:04;3.90;99.90
14144;DHT22;7152;48.348;10.980;2022-11-06T01:28:30;3.90;99.90
14144;DHT22;7152;48.348;10.980;2022-11-06T01:31:02;3.90;99.90
14144;DHT22;7152;48.348;10.980;2022-11-06T01:33:28;3.90;99.90
14144;DHT22;7152;48.348;10.980;2022-11-06T01:35:53;3.90;99.90
14144;DHT22;7152;48.348;10.980;2022-11-06T01:38:19;3.80;99.90
14144;DHT22;7152;48.348;10.980;2022-11-06T01:40:46;3.90;99.90
14144;DHT22;7152;48.348;10.980;2022-11-06T01:43:24;3.80;99.90
14144;DHT22;7152;48.348;10.980;2022-11-06T01:45:52;3.70;99.90
14144;DHT22;7152;48.348;10.980;2022-11-06T01:48:22;3.80;99.90
14144;DHT22;7152;48.348;10.980;2022-11-06T01:50:51;3.70;99.90
14144;DHT22;7152;48.348;10.980;2022-11-06T01:53:18;3.70;99.90
14144;DHT22;7152;48.348;10.980;2022-11-06T01:55:46;3.60;99.90
14144;DHT22;7152;48.348;10.980;2022-11-06T01:58:16;3.60;99.90
14144;DHT22;7152;48.348;10.980;2022-11-06T02:00:42;3.60;99.90
14144;DHT22;7152;48.348;10.980;2022-11-06T02:03:08;3.60;99.90
14144;DHT22;7152;48.348;10.980;2022-11-06T02:05:37;3.50;99.90
14144;DHT22;7152;48.348;10.980;2022-11-06T02:08:03;3.50;99.90
14144;DHT22;7152;48.348;10.980;2022-11-06T02:10:29;3.50;99.90
14144;DHT22;7152;48.348;10.980;2022-11-06T02:13:04;3.50;99.90
14144;DHT22;7152;48.348;10.980;2022-11-06T02:27:21;3.50;99.90
14144;DHT22;7152;48.348;10.980;2022-11-06T02:32:45;3.40;99.90
14144;DHT22;7152;48.348;10.980;2022-11-06T02:35:35;3.40;99.90
14144;DHT22;7152;48.348;10.980;2022-11-06T02:38:12;3.30;99.90
14144;DHT22;7152;48.348;10.980;2022-11-06T02:40:42;3.30;99.90
14144;DHT22;7152;48.348;10.980;2022-11-06T02:43:10;3.30;99.90
14144;DHT22;7152;48.348;10.980;2022-11-06T02:45:58;3.20;99.90
14144;DHT22;7152;48.348;10.980;2022-11-06T02:48:31;3.30;99.90
14144;DHT22;7152;48.348;10.980;2022-11-06T02:51:00;3.20;99.90
14144;DHT22;7152;48.348;10.980;2022-11-06T02:53:30;3.20;99.90
14144;DHT22;7152;48.348;10.980;2022-11-06T02:56:01;3.10;99.90
14144;DHT22;7152;48.348;10.980;2022-11-06T02:58:48;3.10;99.90
14144;DHT22;7152;48.348;10.980;2022-11-06T03:01:30;3.10;99.90
14144;DHT22;7152;48.348;10.980;2022-11-06T03:04:02;3.10;99.90
14144;DHT22;7152;48.348;10.980;2022-11-06T03:06:48;3.10;99.90
14144;DHT22;7152;48.348;10.980;2022-11-06T03:09:23;3.00;99.90
14144;DHT22;7152;48.348;10.980;2022-11-06T03:11:58;3.00;99.90
14144;DHT22;7152;48.348;10.980;2022-11-06T03:14:45;3.00;99.90
14144;DHT22;7152;48.348;10.980;2022-11-06T03:19:48;3.00;99.90
14144;DHT22;7152;48.348;10.980;2022-11-06T03:25:17;3.00;99.90
14144;DHT22;7152;48.348;10.980;2022-11-06T03:27:54;3.00;99.90
14144;DHT22;7152;48.348;10.980;2022-11-06T03:30:22;3.10;99.90
14144;DHT22;7152;48.348;10.980;2022-11-06T03:37:57;3.10;99.90
14144;DHT22;7152;48.348;10.980;2022-11-06T03:40:27;3.10;99.90
14144;DHT22;7152;48.348;10.980;2022-11-06T03:42:57;3.10;99.90
14144;DHT22;7152;48.348;10.980;2022-11-06T03:45:26;3.10;99.90
14144;DHT22;7152;48.348;10.980;2022-11-06T03:50:31;3.00;99.90
14144;DHT22;7152;48.348;10.980;2022-11-06T03:53:11;3.00;99.90
14144;DHT22;7152;48.348;10.980;2022-11-06T03:55:42;3.00;99.90
14144;DHT22;7152;48.348;10.980;2022-11-06T03:58:19;3.10;99.90
14144;DHT22;7152;48.348;10.980;2022-11-06T04:00:46;3.10;99.90
14144;DHT22;7152;48.348;10.980;2022-11-06T04:03:24;3.10;99.90
14144;DHT22;7152;48.348;10.980;2022-11-06T04:05:57;3.10;99.90
14144;DHT22;7152;48.348;10.980;2022-11-06T04:08:26;3.00;99.90
14144;DHT22;7152;48.348;10.980;2022-11-06T04:11:16;2.90;99.90
14144;DHT22;7152;48.348;10.980;2022-11-06T04:14:03;2.90;99.90
14144;DHT22;7152;48.348;10.980;2022-11-06T04:16:36;2.80;99.90
14144;DHT22;7152;48.348;10.980;2022-11-06T04:19:05;2.80;99.90
14144;DHT22;7152;48.348;10.980;2022-11-06T04:24:35;2.80;99.90
14144;DHT22;7152;48.348;10.980;2022-11-06T04:30:04;2.60;99.90
14144;DHT22;7152;48.348;10.980;2022-11-06T04:32:37;2.50;99.90
14144;DHT22;7152;48.348;10.980;2022-11-06T04:35:29;2.50;99.90
14144;DHT22;7152;48.348;10.980;2022-11-06T04:43:53;2.50;99.90
14144;DHT22;7152;48.348;10.980;2022-11-06T04:46:23;2.30;99.90
14144;DHT22;7152;48.348;10.980;2022-11-06T04:48:50;2.50;99.90
14144;DHT22;7152;48.348;10.980;2022-11-06T04:51:21;2.50;99.90
14144;DHT22;7152;48.348;10.980;2022-11-06T04:53:49;2.40;99.90
14144;DHT22;7152;48.348;10.980;2022-11-06T04:56:21;2.40;99.90
14144;DHT22;7152;48.348;10.980;2022-11-06T04:58:48;2.40;99.90
14144;DHT22;7152;48.348;10.980;2022-11-06T05:01:13;2.40;99.90
14144;DHT22;7152;48.348;10.980;2022-11-06T05:03:39;2.30;99.90
14144;DHT22;7152;48.348;10.980;2022-11-06T05:06:05;2.20;99.90
14144;DHT22;7152;48.348;10.980;2022-11-06T05:08:30;2.20;99.90
14144;DHT22;7152;48.348;10.980;2022-11-06T05:10:56;2.20;99.90
14144;DHT22;7152;48.348;10.980;2022-11-06T05:13:22;2.30;99.90
14144;DHT22;7152;48.348;10.980;2022-11-06T05:15:47;2.30;99.90
14144;DHT22;7152;48.348;10.980;2022-11-06T05:18:13;2.30;99.90
14144;DHT22;7152;48.348;10.980;2022-11-06T05:20:38;2.30;99.90
14144;DHT22;7152;48.348;10.980;2022-11-06T05:23:04;2.30;99.90
14144;DHT22;7152;48.348;10.980;2022-11-06T05:25:35;2.30;99.90
14144;DHT22;7152;48.348;10.980;2022-11-06T05:28:03;2.20;99.90
14144;DHT22;7152;48.348;10.980;2022-11-06T05:30:31;2.20;99.90
14144;DHT22;7152;48.348;10.980;2022-11-06T05:32:57;2.20;99.90
14144;DHT22;7152;48.348;10.980;2022-11-06T05:35:22;2.10;99.90
14144;DHT22;7152;48.348;10.980;2022-11-06T05:37:48;2.10;99.90
14144;DHT22;7152;48.348;10.980;2022-11-06T05:40:14;2.10;99.90
14144;DHT22;7152;48.348;10.980;2022-11-06T05:42:40;2.10;99.90
14144;DHT22;7152;48.348;10.980;2022-11-06T05:45:07;2.10;99.90
14144;DHT22;7152;48.348;10.980;2022-11-06T05:47:33;2.10;99.90
14144;DHT22;7152;48.348;10.980;2022-11-06T05:49:59;2.10;99.90
14144;DHT22;7152;48.348;10.980;2022-11-06T05:52:25;2.10;99.90
14144;DHT22;7152;48.348;10.980;2022-11-06T05:54:51;2.10;99.90
14144;DHT22;7152;48.348;10.980;2022-11-06T05:57:17;2.10;99.90
14144;DHT22;7152;48.348;10.980;2022-11-06T05:59:42;2.10;99.90
14144;DHT22;7152;48.348;10.980;2022-11-06T06:02:08;2.20;99.90
14144;DHT22;7152;48.348;10.980;2022-11-06T06:04:34;2.20;99.90
14144;DHT22;7152;48.348;10.980;2022-11-06T06:07:00;2.20;99.90
14144;DHT22;7152;48.348;10.980;2022-11-06T06:09:26;2.20;99.90
14144;DHT22;7152;48.348;10.980;2022-11-06T06:11:52;2.20;99.90
14144;DHT22;7152;48.348;10.980;2022-11-06T06:14:19;2.20;99.90
14144;DHT22;7152;48.348;10.980;2022-11-06T06:16:45;2.20;99.90
14144;DHT22;7152;48.348;10.980;2022-11-06T06:19:11;2.20;99.90
14144;DHT22;7152;48.348;10.980;2022-11-06T06:21:37;2.20;99.90
14144;DHT22;7152;48.348;10.980;2022-11-06T06:24:04;2.30;99.90
14144;DHT22;7152;48.348;10.980;2022-11-06T06:26:30;2.30;99.90
14144;DHT22;7152;48.348;10.980;2022-11-06T06:28:55;2.30;99.90
14144;DHT22;7152;48.348;10.980;2022-11-06T06:31:22;2.30;99.90
14144;DHT22;7152;48.348;10.980;2022-11-06T06:33:48;2.30;99.90
14144;DHT22;7152;48.348;10.980;2022-11-06T06:36:14;2.30;99.90
14144;DHT22;7152;48.348;10.980;2022-11-06T06:38:39;2.30;99.90
14144;DHT22;7152;48.348;10.980;2022-11-06T06:41:06;2.30;99.90
14144;DHT22;7152;48.348;10.980;2022-11-06T06:43:33;2.30;99.90
14144;DHT22;7152;48.348;10.980;2022-11-06T06:46:00;2.40;99.90
14144;DHT22;7152;48.348;10.980;2022-11-06T06:48:26;2.50;99.90
14144;DHT22;7152;48.348;10.980;2022-11-06T06:50:55;2.60;99.90
14144;DHT22;7152;48.348;10.980;2022-11-06T06:53:20;2.70;99.90
14144;DHT22;7152;48.348;10.980;2022-11-06T06:55:46;2.70;99.90
14144;DHT22;7152;48.348;10.980;2022-11-06T06:58:12;2.80;99.90
14144;DHT22;7152;48.348;10.980;2022-11-06T07:00:37;2.90;99.90
14144;DHT22;7152;48.348;10.980;2022-11-06T07:03:03;3.00;99.90
14144;DHT22;7152;48.348;10.980;2022-11-06T07:05:28;3.00;99.90
14144;DHT22;7152;48.348;10.980;2022-11-06T07:07:54;3.10;99.90
14144;DHT22;7152;48.348;10.980;2022-11-06T07:10:20;3.10;99.90
14144;DHT22;7152;48.348;10.980;2022-11-06T07:12:45;3.20;99.90
14144;DHT22;7152;48.348;10.980;2022-11-06T07:15:11;3.20;99.90
14144;DHT22;7152;48.348;10.980;2022-11-06T07:17:36;3.30;99.90
14144;DHT22;7152;48.348;10.980;2022-11-06T07:20:03;3.40;99.90
14144;DHT22;7152;48.348;10.980;2022-11-06T07:22:29;3.50;99.90
14144;DHT22;7152;48.348;10.980;2022-11-06T07:24:55;3.50;99.90
14144;DHT22;7152;48.348;10.980;2022-11-06T07:27:20;3.60;99.90
14144;DHT22;7152;48.348;10.980;2022-11-06T07:29:46;3.60;99.90
14144;DHT22;7152;48.348;10.980;2022-11-06T07:32:11;3.70;99.90
14144;DHT22;7152;48.348;10.980;2022-11-06T07:34:37;3.80;99.90
14144;DHT22;7152;48.348;10.980;2022-11-06T07:37:06;3.80;99.90
14144;DHT22;7152;48.348;10.980;2022-11-06T07:39:33;3.90;99.90
14144;DHT22;7152;48.348;10.980;2022-11-06T07:41:58;4.00;99.90
14144;DHT22;7152;48.348;10.980;2022-11-06T07:44:24;4.00;99.90
14144;DHT22;7152;48.348;10.980;2022-11-06T07:46:50;4.00;99.90
14144;DHT22;7152;48.348;10.980;2022-11-06T07:49:15;4.10;99.90
14144;DHT22;7152;48.348;10.980;2022-11-06T07:51:44;4.10;99.90
14144;DHT22;7152;48.348;10.980;2022-11-06T07:54:10;4.00;99.90
14144;DHT22;7152;48.348;10.980;2022-11-06T07:56:36;4.00;99.90
14144;DHT22;7152;48.348;10.980;2022-11-06T07:59:02;4.10;99.90
14144;DHT22;7152;48.348;10.980;2022-11-06T08:01:27;4.30;99.90
14144;DHT22;7152;48.348;10.980;2022-11-06T08:03:53;4.40;99.90
14144;DHT22;7152;48.348;10.980;2022-11-06T08:06:19;4.50;99.90
14144;DHT22;7152;48.348;10.980;2022-11-06T08:08:44;4.50;99.90
14144;DHT22;7152;48.348;10.980;2022-11-06T08:11:10;4.60;99.90
14144;DHT22;7152;48.348;10.980;2022-11-06T08:13:37;4.70;99.90
14144;DHT22;7152;48.348;10.980;2022-11-06T08:16:08;4.80;99.90
14144;DHT22;7152;48.348;10.980;2022-11-06T08:18:34;4.80;99.90
14144;DHT22;7152;48.348;10.980;2022-11-06T08:21:01;4.80;99.90
14144;DHT22;7152;48.348;10.980;2022-11-06T08:23:27;4.90;99.90
14144;DHT22;7152;48.348;10.980;2022-11-06T08:25:57;5.00;99.90
14144;DHT22;7152;48.348;10.980;2022-11-06T08:28:24;5.10;99.90
14144;DHT22;7152;48.348;10.980;2022-11-06T08:30:50;5.20;99.90
14144;DHT22;7152;48.348;10.980;2022-11-06T08:33:16;5.30;99.90
14144;DHT22;7152;48.348;10.980;2022-11-06T08:35:42;5.40;99.90
14144;DHT22;7152;48.348;10.980;2022-11-06T08:38:07;5.50;99.90
14144;DHT22;7152;48.348;10.980;2022-11-06T08:40:36;5.50;99.90
14144;DHT22;7152;48.348;10.980;2022-11-06T08:43:04;5.70;99.90
14144;DHT22;7152;48.348;10.980;2022-11-06T08:45:31;5.80;99.90
14144;DHT22;7152;48.348;10.980;2022-11-06T08:48:01;5.90;99.90
14144;DHT22;7152;48.348;10.980;2022-11-06T08:50:28;6.00;99.90
14144;DHT22;7152;48.348;10.980;2022-11-06T08:52:58;5.90;99.90
14144;DHT22;7152;48.348;10.980;2022-11-06T08:55:25;6.00;99.90
14144;DHT22;7152;48.348;10.980;2022-11-06T08:57:53;6.10;99.90
14144;DHT22;7152;48.348;10.980;2022-11-06T09:00:19;6.10;99.90
14144;DHT22;7152;48.348;10.980;2022-11-06T09:02:45;6.10;99.90
14144;DHT22;7152;48.348;10.980;2022-11-06T09:05:10;6.20;99.90
14144;DHT22;7152;48.348;10.980;2022-11-06T09:07:36;6.20;99.90
14144;DHT22;7152;48.348;10.980;2022-11-06T09:10:02;6.20;99.90
14144;DHT22;7152;48.348;10.980;2022-11-06T09:12:28;6.30;99.90
14144;DHT22;7152;48.348;10.980;2022-11-06T09:14:53;6.40;99.90
14144;DHT22;7152;48.348;10.980;2022-11-06T09:17:19;6.40;99.90
14144;DHT22;7152;48.348;10.980;2022-11-06T09:19:49;6.50;99.90
14144;DHT22;7152;48.348;10.980;2022-11-06T09:22:15;6.60;99.90
14144;DHT22;7152;48.348;10.980;2022-11-06T09:24:41;6.70;99.90
14144;DHT22;7152;48.348;10.980;2022-11-06T09:27:07;6.80;99.90
14144;DHT22;7152;48.348;10.980;2022-11-06T09:29:32;6.90;99.90
14144;DHT22;7152;48.348;10.980;2022-11-06T09:31:58;7.00;99.90
14144;DHT22;7152;48.348;10.980;2022-11-06T09:34:24;7.10;99.90
14144;DHT22;7152;48.348;10.980;2022-11-06T09:36:49;7.20;99.90
14144;DHT22;7152;48.348;10.980;2022-11-06T09:39:15;7.20;99.90
14144;DHT22;7152;48.348;10.980;2022-11-06T09:42:05;7.20;99.90
14144;DHT22;7152;48.348;10.980;2022-11-06T09:47:01;7.30;99.90
14144;DHT22;7152;48.348;10.980;2022-11-06T09:49:36;7.30;99.90
14144;DHT22;7152;48.348;10.980;2022-11-06T09:54:49;7.40;99.90
14144;DHT22;7152;48.348;10.980;2022-11-06T09:57:27;7.50;99.90
14144;DHT22;7152;48.348;10.980;2022-11-06T09:59:53;7.50;99.90
14144;DHT22;7152;48.348;10.980;2022-11-06T10:02:30;7.60;99.90
14144;DHT22;7152;48.348;10.980;2022-11-06T10:07:38;7.80;99.90
14144;DHT22;7152;48.348;10.980;2022-11-06T10:10:07;7.80;99.90
14144;DHT22;7152;48.348;10.980;2022-11-06T10:13:13;7.90;99.90
14144;DHT22;7152;48.348;10.980;2022-11-06T10:20:51;7.80;99.90
14144;DHT22;7152;48.348;10.980;2022-11-06T10:23:32;7.80;99.90
14144;DHT22;7152;48.348;10.980;2022-11-06T10:26:21;7.80;99.90
14144;DHT22;7152;48.348;10.980;2022-11-06T10:34:41;7.70;99.90
14144;DHT22;7152;48.348;10.980;2022-11-06T10:37:27;7.80;99.90
14144;DHT22;7152;48.348;10.980;2022-11-06T10:39:55;7.90;99.90
14144;DHT22;7152;48.348;10.980;2022-11-06T10:42:27;8.00;99.90
14144;DHT22;7152;48.348;10.980;2022-11-06T10:44:57;8.10;99.90
14144;DHT22;7152;48.348;10.980;2022-11-06T10:47:38;8.00;99.90
14144;DHT22;7152;48.348;10.980;2022-11-06T10:50:11;8.10;99.90
14144;DHT22;7152;48.348;10.980;2022-11-06T10:52:40;8.20;99.90
14144;DHT22;7152;48.348;10.980;2022-11-06T10:58:03;8.40;99.90
14144;DHT22;7152;48.348;10.980;2022-11-06T11:00:31;8.60;99.90
14144;DHT22;7152;48.348;10.980;2022-11-06T11:03:00;8.70;99.90
14144;DHT22;7152;48.348;10.980;2022-11-06T11:05:41;8.80;99.90
14144;DHT22;7152;48.348;10.980;2022-11-06T11:08:46;8.80;99.90
14144;DHT22;7152;48.348;10.980;2022-11-06T11:14:21;8.90;99.90
14144;DHT22;7152;48.348;10.980;2022-11-06T11:16:39;9.00;99.90
14144;DHT22;7152;48.348;10.980;2022-11-06T11:19:23;9.10;99.90
14144;DHT22;7152;48.348;10.980;2022-11-06T11:24:27;9.10;99.90
14144;DHT22;7152;48.348;10.980;2022-11-06T11:26:58;9.20;99.90
14144;DHT22;7152;48.348;10.980;2022-11-06T11:29:40;9.10;99.90
14144;DHT22;7152;48.348;10.980;2022-11-06T11:32:07;9.10;99.90
14144;DHT22;7152;48.348;10.980;2022-11-06T11:34:36;9.20;99.90
14144;DHT22;7152;48.348;10.980;2022-11-06T11:37:24;9.20;99.90
14144;DHT22;7152;48.348;10.980;2022-11-06T11:39:50;9.30;99.90
14144;DHT22;7152;48.348;10.980;2022-11-06T11:44:42;9.70;99.90
14144;DHT22;7152;48.348;10.980;2022-11-06T11:47:22;9.80;99.90
14144;DHT22;7152;48.348;10.980;2022-11-06T11:49:48;10.10;99.90
14144;DHT22;7152;48.348;10.980;2022-11-06T11:52:18;10.30;99.90
14144;DHT22;7152;48.348;10.980;2022-11-06T11:54:50;10.50;99.90
14144;DHT22;7152;48.348;10.980;2022-11-06T11:57:20;10.60;99.90
14144;DHT22;7152;48.348;10.980;2022-11-06T11:59:53;10.70;99.90
14144;DHT22;7152;48.348;10.980;2022-11-06T12:02:34;10.80;99.90
14144;DHT22;7152;48.348;10.980;2022-11-06T12:05:11;10.90;99.90
14144;DHT22;7152;48.348;10.980;2022-11-06T12:07:41;11.00;99.90
14144;DHT22;7152;48.348;10.980;2022-11-06T12:10:28;11.10;99.90
14144;DHT22;7152;48.348;10.980;2022-11-06T12:12:58;11.10;99.90
14144;DHT22;7152;48.348;10.980;2022-11-06T12:20:30;11.50;99.90
14144;DHT22;7152;48.348;10.980;2022-11-06T12:22:59;11.50;99.90
14144;DHT22;7152;48.348;10.980;2022-11-06T12:25:37;11.70;99.90
14144;DHT22;7152;48.348;10.980;2022-11-06T12:28:09;11.90;99.90
14144;DHT22;7152;48.348;10.980;2022-11-06T12:30:40;11.90;99.90
14144;DHT22;7152;48.348;10.980;2022-11-06T12:33:10;11.90;99.90
14144;DHT22;7152;48.348;10.980;2022-11-06T12:41:15;11.80;99.90
14144;DHT22;7152;48.348;10.980;2022-11-06T12:43:45;11.90;99.90
14144;DHT22;7152;48.348;10.980;2022-11-06T12:51:31;12.00;99.90
14144;DHT22;7152;48.348;10.980;2022-11-06T13:02:41;12.10;99.90
14144;DHT22;7152;48.348;10.980;2022-11-06T13:05:32;12.20;99.90
14144;DHT22;7152;48.348;10.980;2022-11-06T13:08:19;12.40;99.90
14144;DHT22;7152;48.348;10.980;2022-11-06T13:26:59;12.30;99.90
14144;DHT22;7152;48.348;10.980;2022-11-06T13:29:26;12.10;99.90
14144;DHT22;7152;48.348;10.980;2022-11-06T13:32:02;11.80;99.90
14144;DHT22;7152;48.348;10.980;2022-11-06T13:34:31;11.70;99.90
14144;DHT22;7152;48.348;10.980;2022-11-06T13:36:59;11.50;99.90
14144;DHT22;7152;48.348;10.980;2022-11-06T13:39:45;11.30;99.90
14144;DHT22;7152;48.348;10.980;2022-11-06T13:42:29;11.20;99.90
14144;DHT22;7152;48.348;10.980;2022-11-06T13:44:57;11.10;99.90
14144;DHT22;7152;48.348;10.980;2022-11-06T13:48:18;11.00;99.90
14144;DHT22;7152;48.348;10.980;2022-11-06T13:50:52;11.00;99.90
14144;DHT22;7152;48.348;10.980;2022-11-06T13:54:03;10.90;99.90
14144;DHT22;7152;48.348;10.980;2022-11-06T13:59:26;10.70;99.90
14144;DHT22;7152;48.348;10.980;2022-11-06T14:02:28;10.60;99.90
14144;DHT22;7152;48.348;10.980;2022-11-06T14:07:50;10.50;99.90
14144;DHT22;7152;48.348;10.980;2022-11-06T14:10:28;10.40;99.90
14144;DHT22;7152;48.348;10.980;2022-11-06T14:12:55;10.40;99.90
14144;DHT22;7152;48.348;10.980;2022-11-06T14:15:41;10.40;99.90
14144;DHT22;7152;48.348;10.980;2022-11-06T14:18:20;10.30;99.90
14144;DHT22;7152;48.348;10.980;2022-11-06T14:20:46;10.30;99.90
14144;DHT22;7152;48.348;10.980;2022-11-06T14:26:03;10.20;99.90
14144;DHT22;7152;48.348;10.980;2022-11-06T14:28:32;10.20;99.90
14144;DHT22;7152;48.348;10.980;2022-11-06T14:30:58;10.20;99.90
14144;DHT22;7152;48.348;10.980;2022-11-06T14:36:48;10.10;99.90
14144;DHT22;7152;48.348;10.980;2022-11-06T14:39:14;10.10;99.90
14144;DHT22;7152;48.348;10.980;2022-11-06T14:46:50;9.90;99.90
14144;DHT22;7152;48.348;10.980;2022-11-06T14:49:35;9.90;99.90
14144;DHT22;7152;48.348;10.980;2022-11-06T14:52:06;9.80;99.90
14144;DHT22;7152;48.348;10.980;2022-11-06T14:54:35;9.70;99.90
14144;DHT22;7152;48.348;10.980;2022-11-06T14:57:02;9.60;99.90
14144;DHT22;7152;48.348;10.980;2022-11-06T14:59:34;9.60;99.90
14144;DHT22;7152;48.348;10.980;2022-11-06T15:02:24;9.50;99.90
14144;DHT22;7152;48.348;10.980;2022-11-06T15:05:13;9.50;99.90
14144;DHT22;7152;48.348;10.980;2022-11-06T15:15:50;9.20;99.90
14144;DHT22;7152;48.348;10.980;2022-11-06T15:18:19;9.10;99.90
14144;DHT22;7152;48.348;10.980;2022-11-06T15:20:56;9.00;99.90
14144;DHT22;7152;48.348;10.980;2022-11-06T15:23:30;8.90;99.90
14144;DHT22;7152;48.348;10.980;2022-11-06T15:28:56;8.70;99.90
14144;DHT22;7152;48.348;10.980;2022-11-06T15:31:27;8.60;99.90
14144;DHT22;7152;48.348;10.980;2022-11-06T15:34:06;8.50;99.90
14144;DHT22;7152;48.348;10.980;2022-11-06T15:36:40;8.40;99.90
14144;DHT22;7152;48.348;10.980;2022-11-06T15:39:37;8.30;99.90
14144;DHT22;7152;48.348;10.980;2022-11-06T15:42:07;8.20;99.90
14144;DHT22;7152;48.348;10.980;2022-11-06T15:44:37;8.20;99.90
14144;DHT22;7152;48.348;10.980;2022-11-06T15:47:03;8.10;99.90
14144;DHT22;7152;48.348;10.980;2022-11-06T15:49:29;8.00;99.90
14144;DHT22;7152;48.348;10.980;2022-11-06T15:52:00;7.90;99.90
14144;DHT22;7152;48.348;10.980;2022-11-06T15:57:25;7.80;99.90
14144;DHT22;7152;48.348;10.980;2022-11-06T15:59:50;7.70;99.90
14144;DHT22;7152;48.348;10.980;2022-11-06T16:02:20;7.70;99.90
14144;DHT22;7152;48.348;10.980;2022-11-06T16:04:49;7.60;99.90
14144;DHT22;7152;48.348;10.980;2022-11-06T16:07:17;7.60;99.90
14144;DHT22;7152;48.348;10.980;2022-11-06T16:09:44;7.50;99.90
14144;DHT22;7152;48.348;10.980;2022-11-06T16:12:13;7.50;99.90
14144;DHT22;7152;48.348;10.980;2022-11-06T16:14:40;7.50;99.90
14144;DHT22;7152;48.348;10.980;2022-11-06T16:17:16;7.40;99.90
14144;DHT22;7152;48.348;10.980;2022-11-06T16:19:45;7.40;99.90
14144;DHT22;7152;48.348;10.980;2022-11-06T16:22:20;7.30;99.90
14144;DHT22;7152;48.348;10.980;2022-11-06T16:24:55;7.20;99.90
14144;DHT22;7152;48.348;10.980;2022-11-06T16:27:23;7.20;99.90
14144;DHT22;7152;48.348;10.980;2022-11-06T16:29:55;7.20;99.90
14144;DHT22;7152;48.348;10.980;2022-11-06T16:32:24;7.20;99.90
14144;DHT22;7152;48.348;10.980;2022-11-06T16:34:50;7.10;99.90
14144;DHT22;7152;48.348;10.980;2022-11-06T16:39:49;7.10;99.90
14144;DHT22;7152;48.348;10.980;2022-11-06T16:45:16;7.00;99.90
14144;DHT22;7152;48.348;10.980;2022-11-06T16:47:42;7.00;99.90
14144;DHT22;7152;48.348;10.980;2022-11-06T16:50:47;7.00;99.90
14144;DHT22;7152;48.348;10.980;2022-11-06T16:53:22;7.00;99.90
14144;DHT22;7152;48.348;10.980;2022-11-06T16:55:58;7.00;99.90
14144;DHT22;7152;48.348;10.980;2022-11-06T16:58:27;7.00;99.90
14144;DHT22;7152;48.348;10.980;2022-11-06T17:01:03;7.00;99.90
14144;DHT22;7152;48.348;10.980;2022-11-06T17:03:40;6.90;99.90
14144;DHT22;7152;48.348;10.980;2022-11-06T17:06:22;6.90;99.90
14144;DHT22;7152;48.348;10.980;2022-11-06T17:09:07;7.00;99.90
14144;DHT22;7152;48.348;10.980;2022-11-06T17:11:58;7.00;99.90
14144;DHT22;7152;48.348;10.980;2022-11-06T17:14:24;7.00;99.90
14144;DHT22;7152;48.348;10.980;2022-11-06T17:16:52;7.00;99.90
14144;DHT22;7152;48.348;10.980;2022-11-06T17:19:19;6.90;99.90
14144;DHT22;7152;48.348;10.980;2022-11-06T17:21:45;6.90;99.90
14144;DHT22;7152;48.348;10.980;2022-11-06T17:24:11;6.90;99.90
14144;DHT22;7152;48.348;10.980;2022-11-06T17:26:42;6.90;99.90
14144;DHT22;7152;48.348;10.980;2022-11-06T17:29:09;6.90;99.90
14144;DHT22;7152;48.348;10.980;2022-11-06T17:31:35;6.90;99.90
14144;DHT22;7152;48.348;10.980;2022-11-06T17:34:00;6.90;99.90
14144;DHT22;7152;48.348;10.980;2022-11-06T17:36:27;6.90;99.90
14144;DHT22;7152;48.348;10.980;2022-11-06T17:38:54;6.90;99.90
14144;DHT22;7152;48.348;10.980;2022-11-06T17:41:21;6.90;99.90
14144;DHT22;7152;48.348;10.980;2022-11-06T17:44:10;6.90;99.90
14144;DHT22;7152;48.348;10.980;2022-11-06T17:46:44;6.90;99.90
14144;DHT22;7152;48.348;10.980;2022-11-06T17:49:11;6.90;99.90
14144;DHT22;7152;48.348;10.980;2022-11-06T17:51:37;6.90;99.90
14144;DHT22;7152;48.348;10.980;2022-11-06T17:54:15;6.90;99.90
14144;DHT22;7152;48.348;10.980;2022-11-06T17:56:41;6.90;99.90
14144;DHT22;7152;48.348;10.980;2022-11-06T17:59:09;6.90;99.90
14144;DHT22;7152;48.348;10.980;2022-11-06T18:01:34;6.90;99.90
14144;DHT22;7152;48.348;10.980;2022-11-06T18:04:00;7.00;99.90
14144;DHT22;7152;48.348;10.980;2022-11-06T18:06:26;7.00;99.90
14144;DHT22;7152;48.348;10.980;2022-11-06T18:08:58;7.00;99.90
14144;DHT22;7152;48.348;10.980;2022-11-06T18:11:24;7.00;99.90
14144;DHT22;7152;48.348;10.980;2022-11-06T18:13:50;7.00;99.90
14144;DHT22;7152;48.348;10.980;2022-11-06T18:16:19;7.10;99.90
14144;DHT22;7152;48.348;10.980;2022-11-06T18:18:45;7.10;99.90
14144;DHT22;7152;48.348;10.980;2022-11-06T18:21:11;7.10;99.90
14144;DHT22;7152;48.348;10.980;2022-11-06T18:23:36;7.10;99.90
14144;DHT22;7152;48.348;10.980;2022-11-06T18:26:02;7.20;99.90
14144;DHT22;7152;48.348;10.980;2022-11-06T18:28:28;7.20;99.90
14144;DHT22;7152;48.348;10.980;2022-11-06T18:30:54;7.20;99.90
14144;DHT22;7152;48.348;10.980;2022-11-06T18:33:21;7.30;99.90
14144;DHT22;7152;48.348;10.980;2022-11-06T18:35:47;7.30;99.90